THA1123 VTSP-VTBS
Flight info
| Callsign | THA1123 |
|---|---|
| Flight time | 1h 8m |
| Altitude | 39000 |
| Route | EMRIT1A EMRIT Y99 NONEL Y98 LEBIM LEBIM1C |
| Aircraft | B77W/H-SDE1E2E3FGHIJ2J3J4J5M1RWXY/LB1D1 |
Departure
| Time | 2026-05-01 08:12 |
|---|---|
| Airport | Phuket International Airport (VTSP) |
Arrival
| Time | 2026-05-01 09:21 |
|---|---|
| Airport | Suvarnabhumi Airport (VTBS) |
| Time | Latitude | Longitude | Altitude | Speed | Heading |
|---|---|---|---|---|---|
| 2026-05-01 07:58 | 8.10999 | 98.30635 | 33 ft | 0 kts | 174° |
| 2026-05-01 08:04 | 8.11017 | 98.30633 | 30 ft | 2 kts | 175° |
| 2026-05-01 08:04 | 8.11049 | 98.30634 | 30 ft | 2 kts | 216° |
| 2026-05-01 08:05 | 8.11063 | 98.30662 | 32 ft | 2 kts | 265° |
| 2026-05-01 08:05 | 8.11064 | 98.30679 | 32 ft | 2 kts | 264° |
| 2026-05-01 08:05 | 8.11065 | 98.30691 | 31 ft | 1 kts | 264° |
| 2026-05-01 08:06 | 8.11065 | 98.30692 | 30 ft | 0 kts | 264° |
| 2026-05-01 08:07 | 8.11065 | 98.30691 | 33 ft | 0 kts | 264° |
| 2026-05-01 08:07 | 8.11063 | 98.30668 | 33 ft | 3 kts | 264° |
| 2026-05-01 08:08 | 8.11060 | 98.30640 | 33 ft | 5 kts | 264° |
| 2026-05-01 08:08 | 8.11052 | 98.30555 | 32 ft | 7 kts | 264° |
| 2026-05-01 08:09 | 8.11047 | 98.30491 | 32 ft | 9 kts | 264° |
| 2026-05-01 08:09 | 8.11044 | 98.30460 | 32 ft | 10 kts | 264° |
| 2026-05-01 08:10 | 8.11103 | 98.30350 | 31 ft | 11 kts | 351° |
| 2026-05-01 08:10 | 8.11111 | 98.30349 | 31 ft | 6 kts | 352° |
| 2026-05-01 08:11 | 8.11193 | 98.30374 | 32 ft | 8 kts | 68° |
| 2026-05-01 08:11 | 8.11206 | 98.30446 | 32 ft | 15 kts | 84° |
| 2026-05-01 08:12 | 8.11334 | 98.31825 | 78 ft | 178 kts | 85° |
| 2026-05-01 08:12 | 8.11447 | 98.33120 | 841 ft | 189 kts | 86° |
| 2026-05-01 08:12 | 8.11703 | 98.35911 | 2389 ft | 217 kts | 85° |
| 2026-05-01 08:13 | 8.11861 | 98.37541 | 2771 ft | 247 kts | 85° |
| 2026-05-01 08:13 | 8.12029 | 98.39291 | 3616 ft | 254 kts | 85° |
| 2026-05-01 08:13 | 8.12373 | 98.42879 | 5629 ft | 259 kts | 85° |
| 2026-05-01 08:14 | 8.12546 | 98.44711 | 6539 ft | 265 kts | 85° |
| 2026-05-01 08:14 | 8.12721 | 98.46571 | 7416 ft | 269 kts | 85° |
| 2026-05-01 08:14 | 8.12900 | 98.48474 | 8282 ft | 275 kts | 85° |
| 2026-05-01 08:14 | 8.13081 | 98.50410 | 9160 ft | 279 kts | 85° |
| 2026-05-01 08:15 | 8.13265 | 98.52380 | 10016 ft | 284 kts | 85° |
| 2026-05-01 08:15 | 8.13658 | 98.56595 | 10855 ft | 329 kts | 85° |
| 2026-05-01 08:15 | 8.13878 | 98.58966 | 11101 ft | 356 kts | 85° |
| 2026-05-01 08:16 | 8.13952 | 98.59754 | 11298 ft | 360 kts | 85° |
| 2026-05-01 08:16 | 8.14023 | 98.62145 | 11979 ft | 370 kts | 95° |
| 2026-05-01 08:16 | 8.13618 | 98.64695 | 12918 ft | 374 kts | 101° |
| 2026-05-01 08:16 | 8.13563 | 98.64976 | 13035 ft | 375 kts | 101° |
| 2026-05-01 08:17 | 8.13054 | 98.67530 | 13951 ft | 380 kts | 101° |
| 2026-05-01 08:17 | 8.12543 | 98.70170 | 14773 ft | 386 kts | 100° |
| 2026-05-01 08:17 | 8.12047 | 98.72852 | 15562 ft | 393 kts | 100° |
| 2026-05-01 08:17 | 8.11561 | 98.75587 | 16372 ft | 398 kts | 99° |
| 2026-05-01 08:18 | 8.11077 | 98.78353 | 17183 ft | 404 kts | 99° |
| 2026-05-01 08:18 | 8.10441 | 98.84032 | 18670 ft | 414 kts | 89° |
| 2026-05-01 08:19 | 8.10682 | 98.89901 | 20079 ft | 422 kts | 88° |
| 2026-05-01 08:19 | 8.10752 | 98.92872 | 20794 ft | 426 kts | 89° |
| 2026-05-01 08:19 | 8.11056 | 98.95848 | 21307 ft | 432 kts | 76° |
| 2026-05-01 08:19 | 8.12129 | 98.98694 | 21968 ft | 437 kts | 63° |
| 2026-05-01 08:20 | 8.13837 | 99.01243 | 22691 ft | 439 kts | 49° |
| 2026-05-01 08:20 | 8.15949 | 99.03490 | 23288 ft | 445 kts | 46° |
| 2026-05-01 08:20 | 8.18135 | 99.05725 | 23816 ft | 451 kts | 46° |
| 2026-05-01 08:20 | 8.20343 | 99.07985 | 24403 ft | 453 kts | 46° |
| 2026-05-01 08:21 | 8.22546 | 99.10270 | 25060 ft | 454 kts | 46° |
| 2026-05-01 08:21 | 8.24735 | 99.12571 | 25669 ft | 455 kts | 46° |
| 2026-05-01 08:21 | 8.26933 | 99.14899 | 26088 ft | 462 kts | 46° |
| 2026-05-01 08:21 | 8.29150 | 99.17257 | 26643 ft | 464 kts | 47° |
| 2026-05-01 08:22 | 8.31375 | 99.19623 | 27210 ft | 467 kts | 46° |
| 2026-05-01 08:22 | 8.33257 | 99.21622 | 27568 ft | 472 kts | 46° |
| 2026-05-01 08:22 | 8.34685 | 99.23138 | 27833 ft | 474 kts | 46° |
| 2026-05-01 08:22 | 8.36958 | 99.25552 | 28348 ft | 477 kts | 46° |
| 2026-05-01 08:23 | 8.39250 | 99.27986 | 28862 ft | 479 kts | 46° |
| 2026-05-01 08:23 | 8.40503 | 99.29317 | 29103 ft | 481 kts | 46° |
| 2026-05-01 08:23 | 8.42946 | 99.31613 | 29426 ft | 484 kts | 36° |
| 2026-05-01 08:23 | 8.45894 | 99.33299 | 29744 ft | 490 kts | 24° |
| 2026-05-01 08:24 | 8.49154 | 99.34345 | 30115 ft | 493 kts | 12° |
| 2026-05-01 08:24 | 8.52561 | 99.34696 | 30457 ft | 495 kts | 3° |
| 2026-05-01 08:24 | 8.56011 | 99.34805 | 30808 ft | 496 kts | 2° |
| 2026-05-01 08:24 | 8.59468 | 99.34901 | 31224 ft | 496 kts | 3° |
| 2026-05-01 08:25 | 8.62910 | 99.35024 | 31695 ft | 495 kts | 3° |
| 2026-05-01 08:25 | 8.66348 | 99.35180 | 32106 ft | 495 kts | 4° |
| 2026-05-01 08:25 | 8.69792 | 99.35358 | 32548 ft | 495 kts | 4° |
| 2026-05-01 08:25 | 8.73229 | 99.35538 | 33015 ft | 494 kts | 4° |
| 2026-05-01 08:26 | 8.76661 | 99.35715 | 33453 ft | 494 kts | 3° |
| 2026-05-01 08:26 | 8.80090 | 99.35888 | 33897 ft | 493 kts | 4° |
| 2026-05-01 08:26 | 8.83519 | 99.36058 | 34237 ft | 494 kts | 3° |
| 2026-05-01 08:26 | 8.86965 | 99.36229 | 34525 ft | 496 kts | 4° |
| 2026-05-01 08:27 | 8.90422 | 99.36401 | 34801 ft | 498 kts | 3° |
| 2026-05-01 08:27 | 8.93890 | 99.36574 | 35141 ft | 498 kts | 3° |
| 2026-05-01 08:27 | 8.97308 | 99.36745 | 35482 ft | 499 kts | 3° |
| 2026-05-01 08:27 | 9.00750 | 99.36917 | 35851 ft | 498 kts | 3° |
| 2026-05-01 08:28 | 9.04209 | 99.37090 | 36218 ft | 498 kts | 3° |
| 2026-05-01 08:28 | 9.07637 | 99.37262 | 36489 ft | 500 kts | 3° |
| 2026-05-01 08:28 | 9.11207 | 99.37443 | 36733 ft | 502 kts | 3° |
| 2026-05-01 08:28 | 9.14693 | 99.37621 | 37201 ft | 499 kts | 3° |
| 2026-05-01 08:29 | 9.18167 | 99.37798 | 37518 ft | 501 kts | 3° |
| 2026-05-01 08:29 | 9.21601 | 99.38016 | 37835 ft | 500 kts | 6° |
| 2026-05-01 08:29 | 9.25021 | 99.38506 | 38239 ft | 499 kts | 11° |
| 2026-05-01 08:29 | 9.28406 | 99.39321 | 38475 ft | 500 kts | 17° |
| 2026-05-01 08:30 | 9.31719 | 99.40377 | 38773 ft | 499 kts | 19° |
| 2026-05-01 08:30 | 9.38384 | 99.42548 | 38854 ft | 505 kts | 17° |
| 2026-05-01 08:31 | 9.45066 | 99.44628 | 38838 ft | 500 kts | 17° |
| 2026-05-01 08:31 | 9.51772 | 99.46705 | 38867 ft | 507 kts | 17° |
| 2026-05-01 08:32 | 9.57439 | 99.48466 | 38854 ft | 510 kts | 17° |
| 2026-05-01 08:32 | 9.64185 | 99.50567 | 38852 ft | 513 kts | 17° |
| 2026-05-01 08:33 | 9.71072 | 99.52713 | 38845 ft | 515 kts | 17° |
| 2026-05-01 08:33 | 9.77881 | 99.54834 | 38846 ft | 515 kts | 17° |
| 2026-05-01 08:34 | 9.84732 | 99.56969 | 38847 ft | 515 kts | 17° |
| 2026-05-01 08:34 | 9.91571 | 99.59101 | 38846 ft | 513 kts | 17° |
| 2026-05-01 08:35 | 9.98389 | 99.61228 | 38842 ft | 512 kts | 17° |
| 2026-05-01 08:35 | 10.05160 | 99.63341 | 38845 ft | 511 kts | 17° |
| 2026-05-01 08:36 | 10.11950 | 99.65461 | 38848 ft | 510 kts | 17° |
| 2026-05-01 08:36 | 10.18720 | 99.67576 | 38848 ft | 509 kts | 17° |
| 2026-05-01 08:37 | 10.25487 | 99.69691 | 38852 ft | 509 kts | 17° |
| 2026-05-01 08:37 | 10.32256 | 99.71807 | 38853 ft | 509 kts | 17° |
| 2026-05-01 08:38 | 10.39021 | 99.73923 | 38857 ft | 509 kts | 17° |
| 2026-05-01 08:38 | 10.45795 | 99.76043 | 38854 ft | 510 kts | 16° |
| 2026-05-01 08:39 | 10.52576 | 99.78166 | 38853 ft | 510 kts | 16° |
| 2026-05-01 08:39 | 10.59360 | 99.80291 | 38856 ft | 511 kts | 16° |
| 2026-05-01 08:40 | 10.69555 | 99.83486 | 38849 ft | 511 kts | 16° |
| 2026-05-01 08:40 | 10.76338 | 99.85614 | 38857 ft | 509 kts | 16° |
| 2026-05-01 08:41 | 10.83099 | 99.87735 | 38848 ft | 508 kts | 15° |
| 2026-05-01 08:41 | 10.89747 | 99.90140 | 38854 ft | 508 kts | 23° |
| 2026-05-01 08:42 | 10.95977 | 99.93525 | 38857 ft | 508 kts | 28° |
| 2026-05-01 08:42 | 11.02068 | 99.97029 | 38851 ft | 508 kts | 28° |
| 2026-05-01 08:43 | 11.08089 | 100.00456 | 38846 ft | 508 kts | 27° |
| 2026-05-01 08:43 | 11.14276 | 100.03939 | 38852 ft | 509 kts | 27° |
| 2026-05-01 08:44 | 11.20479 | 100.07422 | 38848 ft | 509 kts | 27° |
| 2026-05-01 08:44 | 11.26689 | 100.10914 | 38851 ft | 510 kts | 27° |
| 2026-05-01 08:45 | 11.32905 | 100.14414 | 38846 ft | 511 kts | 27° |
| 2026-05-01 08:45 | 11.39124 | 100.17917 | 38846 ft | 511 kts | 27° |
| 2026-05-01 08:46 | 11.45343 | 100.21423 | 38851 ft | 510 kts | 27° |
| 2026-05-01 08:46 | 11.51543 | 100.24920 | 38845 ft | 508 kts | 27° |
| 2026-05-01 08:47 | 11.57677 | 100.28381 | 38846 ft | 506 kts | 27° |
| 2026-05-01 08:47 | 11.63822 | 100.31856 | 38849 ft | 504 kts | 27° |
| 2026-05-01 08:48 | 11.69946 | 100.35325 | 38848 ft | 503 kts | 27° |
| 2026-05-01 08:48 | 11.76060 | 100.38790 | 38844 ft | 502 kts | 27° |
| 2026-05-01 08:49 | 11.82208 | 100.42171 | 38840 ft | 501 kts | 21° |
| 2026-05-01 08:49 | 11.88847 | 100.44165 | 38851 ft | 496 kts | 6° |
| 2026-05-01 08:50 | 11.95696 | 100.44610 | 38848 ft | 490 kts | 358° |
| 2026-05-01 08:50 | 11.99088 | 100.44657 | 38505 ft | 489 kts | 358° |
| 2026-05-01 08:50 | 12.02482 | 100.44694 | 37675 ft | 491 kts | 358° |
| 2026-05-01 08:51 | 12.05891 | 100.44741 | 36929 ft | 489 kts | 358° |
| 2026-05-01 08:51 | 12.09291 | 100.44802 | 36195 ft | 488 kts | 359° |
| 2026-05-01 08:51 | 12.12683 | 100.44875 | 35440 ft | 488 kts | 359° |
| 2026-05-01 08:51 | 12.16096 | 100.44957 | 34566 ft | 491 kts | 360° |
| 2026-05-01 08:52 | 12.19516 | 100.45043 | 33795 ft | 492 kts | 0° |
| 2026-05-01 08:52 | 12.22926 | 100.45132 | 33083 ft | 489 kts | 0° |
| 2026-05-01 08:52 | 12.26313 | 100.45220 | 32465 ft | 484 kts | 0° |
| 2026-05-01 08:52 | 12.29626 | 100.45306 | 31880 ft | 480 kts | 0° |
| 2026-05-01 08:53 | 12.32944 | 100.45391 | 31312 ft | 476 kts | 0° |
| 2026-05-01 08:53 | 12.36236 | 100.45474 | 30742 ft | 472 kts | 0° |
| 2026-05-01 08:53 | 12.39510 | 100.45556 | 30163 ft | 468 kts | 0° |
| 2026-05-01 08:53 | 12.42757 | 100.45638 | 29542 ft | 465 kts | 0° |
| 2026-05-01 08:54 | 12.45977 | 100.45718 | 28915 ft | 460 kts | 0° |
| 2026-05-01 08:54 | 12.49207 | 100.45800 | 28315 ft | 456 kts | 0° |
| 2026-05-01 08:54 | 12.52312 | 100.45878 | 27752 ft | 451 kts | 0° |
| 2026-05-01 08:54 | 12.55437 | 100.45957 | 27192 ft | 447 kts | 0° |
| 2026-05-01 08:55 | 12.58533 | 100.46035 | 26652 ft | 443 kts | 0° |
| 2026-05-01 08:55 | 12.61595 | 100.46112 | 26100 ft | 439 kts | 0° |
| 2026-05-01 08:55 | 12.64636 | 100.46188 | 25582 ft | 436 kts | 0° |
| 2026-05-01 08:55 | 12.67665 | 100.46264 | 25014 ft | 434 kts | 0° |
| 2026-05-01 08:56 | 12.70671 | 100.46340 | 24458 ft | 431 kts | 0° |
| 2026-05-01 08:56 | 12.73665 | 100.46415 | 23935 ft | 429 kts | 0° |
| 2026-05-01 08:56 | 12.76645 | 100.46490 | 23389 ft | 428 kts | 0° |
| 2026-05-01 08:56 | 12.79613 | 100.46565 | 22763 ft | 425 kts | 1° |
| 2026-05-01 08:57 | 12.82557 | 100.46639 | 22209 ft | 422 kts | 0° |
| 2026-05-01 08:57 | 12.85483 | 100.46714 | 21675 ft | 419 kts | 0° |
| 2026-05-01 08:57 | 12.88389 | 100.46787 | 21148 ft | 416 kts | 1° |
| 2026-05-01 08:57 | 12.91268 | 100.46859 | 20637 ft | 413 kts | 1° |
| 2026-05-01 08:58 | 12.94134 | 100.46932 | 20119 ft | 411 kts | 0° |
| 2026-05-01 08:58 | 12.96985 | 100.47004 | 19593 ft | 409 kts | 0° |
| 2026-05-01 08:58 | 12.99817 | 100.47075 | 19066 ft | 407 kts | 1° |
| 2026-05-01 08:58 | 13.02625 | 100.47146 | 18551 ft | 406 kts | 0° |
| 2026-05-01 08:59 | 13.05446 | 100.47217 | 18042 ft | 404 kts | 0° |
| 2026-05-01 08:59 | 13.08175 | 100.47497 | 17832 ft | 389 kts | 14° |
| 2026-05-01 08:59 | 13.10637 | 100.48570 | 17364 ft | 385 kts | 33° |
| 2026-05-01 08:59 | 13.12782 | 100.50150 | 16920 ft | 378 kts | 36° |
| 2026-05-01 09:00 | 13.14910 | 100.51738 | 16444 ft | 377 kts | 36° |
| 2026-05-01 09:00 | 13.17030 | 100.53303 | 16002 ft | 375 kts | 36° |
| 2026-05-01 09:00 | 13.19149 | 100.54854 | 15537 ft | 373 kts | 35° |
| 2026-05-01 09:00 | 13.21262 | 100.56390 | 15086 ft | 372 kts | 35° |
| 2026-05-01 09:01 | 13.23368 | 100.57917 | 14625 ft | 370 kts | 35° |
| 2026-05-01 09:01 | 13.25475 | 100.59443 | 14168 ft | 370 kts | 35° |
| 2026-05-01 09:01 | 13.27567 | 100.60958 | 13813 ft | 365 kts | 35° |
| 2026-05-01 09:01 | 13.29617 | 100.62439 | 13627 ft | 357 kts | 35° |
| 2026-05-01 09:02 | 13.31633 | 100.63894 | 13441 ft | 352 kts | 35° |
| 2026-05-01 09:02 | 13.33642 | 100.65343 | 13240 ft | 355 kts | 35° |
| 2026-05-01 09:02 | 13.35673 | 100.66811 | 13083 ft | 359 kts | 35° |
| 2026-05-01 09:02 | 13.37729 | 100.68296 | 12906 ft | 362 kts | 34° |
| 2026-05-01 09:03 | 13.38693 | 100.68993 | 12813 ft | 362 kts | 35° |
| 2026-05-01 09:03 | 13.40256 | 100.70123 | 12674 ft | 359 kts | 35° |
| 2026-05-01 09:03 | 13.41696 | 100.71164 | 12536 ft | 357 kts | 35° |
| 2026-05-01 09:03 | 13.43720 | 100.72629 | 12364 ft | 354 kts | 35° |
| 2026-05-01 09:04 | 13.45693 | 100.74058 | 12299 ft | 349 kts | 35° |
| 2026-05-01 09:04 | 13.47681 | 100.75499 | 12149 ft | 352 kts | 35° |
| 2026-05-01 09:04 | 13.49682 | 100.76950 | 11996 ft | 353 kts | 35° |
| 2026-05-01 09:04 | 13.51691 | 100.78406 | 11816 ft | 353 kts | 35° |
| 2026-05-01 09:05 | 13.53693 | 100.79850 | 11650 ft | 350 kts | 33° |
| 2026-05-01 09:05 | 13.55826 | 100.81038 | 11473 ft | 349 kts | 22° |
| 2026-05-01 09:05 | 13.58128 | 100.81807 | 11316 ft | 347 kts | 13° |
| 2026-05-01 09:05 | 13.60471 | 100.82410 | 11140 ft | 347 kts | 13° |
| 2026-05-01 09:06 | 13.62794 | 100.83021 | 10977 ft | 342 kts | 13° |
| 2026-05-01 09:06 | 13.65087 | 100.83638 | 10666 ft | 338 kts | 14° |
| 2026-05-01 09:06 | 13.67341 | 100.84252 | 10384 ft | 333 kts | 14° |
| 2026-05-01 09:06 | 13.69561 | 100.84859 | 10098 ft | 328 kts | 14° |
| 2026-05-01 09:07 | 13.71748 | 100.85458 | 9906 ft | 320 kts | 14° |
| 2026-05-01 09:07 | 13.73870 | 100.86040 | 9733 ft | 313 kts | 14° |
| 2026-05-01 09:07 | 13.75934 | 100.86606 | 9467 ft | 300 kts | 14° |
| 2026-05-01 09:07 | 13.77927 | 100.87152 | 9046 ft | 291 kts | 14° |
| 2026-05-01 09:08 | 13.79843 | 100.87677 | 8770 ft | 279 kts | 14° |
| 2026-05-01 09:08 | 13.81710 | 100.88188 | 8542 ft | 281 kts | 14° |
| 2026-05-01 09:08 | 13.83642 | 100.88719 | 8320 ft | 292 kts | 14° |
| 2026-05-01 09:08 | 13.85617 | 100.89260 | 8053 ft | 295 kts | 14° |
| 2026-05-01 09:09 | 13.87586 | 100.89799 | 7798 ft | 292 kts | 15° |
| 2026-05-01 09:09 | 13.89541 | 100.90334 | 7559 ft | 288 kts | 15° |
| 2026-05-01 09:09 | 13.91468 | 100.90862 | 7310 ft | 285 kts | 15° |
| 2026-05-01 09:09 | 13.93374 | 100.91385 | 7066 ft | 282 kts | 15° |
| 2026-05-01 09:10 | 13.95259 | 100.91903 | 6822 ft | 279 kts | 15° |
| 2026-05-01 09:10 | 13.97126 | 100.92416 | 6602 ft | 276 kts | 15° |
| 2026-05-01 09:10 | 13.98973 | 100.92923 | 6358 ft | 274 kts | 15° |
| 2026-05-01 09:10 | 14.00805 | 100.93280 | 6099 ft | 269 kts | 358° |
| 2026-05-01 09:11 | 14.02596 | 100.92750 | 5903 ft | 273 kts | 327° |
| 2026-05-01 09:11 | 14.03940 | 100.91386 | 5680 ft | 274 kts | 299° |
| 2026-05-01 09:11 | 14.04532 | 100.89570 | 5438 ft | 271 kts | 272° |
| 2026-05-01 09:11 | 14.04253 | 100.87691 | 5251 ft | 263 kts | 245° |
| 2026-05-01 09:12 | 14.03248 | 100.86147 | 5073 ft | 250 kts | 224° |
| 2026-05-01 09:12 | 14.02004 | 100.84987 | 4990 ft | 238 kts | 215° |
| 2026-05-01 09:12 | 14.00527 | 100.84338 | 4995 ft | 229 kts | 193° |
| 2026-05-01 09:12 | 13.98951 | 100.83940 | 4994 ft | 235 kts | 194° |
| 2026-05-01 09:13 | 13.97357 | 100.83519 | 4909 ft | 239 kts | 194° |
| 2026-05-01 09:13 | 13.95720 | 100.83088 | 4646 ft | 246 kts | 194° |
| 2026-05-01 09:13 | 13.94063 | 100.82652 | 4362 ft | 246 kts | 194° |
| 2026-05-01 09:13 | 13.92401 | 100.82215 | 4058 ft | 246 kts | 194° |
| 2026-05-01 09:14 | 13.90741 | 100.81779 | 3717 ft | 245 kts | 194° |
| 2026-05-01 09:14 | 13.89119 | 100.81352 | 3451 ft | 234 kts | 194° |
| 2026-05-01 09:14 | 13.87596 | 100.80951 | 3171 ft | 220 kts | 194° |
| 2026-05-01 09:14 | 13.86163 | 100.80577 | 2915 ft | 203 kts | 195° |
| 2026-05-01 09:15 | 13.84805 | 100.80228 | 2766 ft | 195 kts | 194° |
| 2026-05-01 09:15 | 13.83566 | 100.79904 | 2568 ft | 173 kts | 194° |
| 2026-05-01 09:15 | 13.82436 | 100.79615 | 2265 ft | 161 kts | 194° |
| 2026-05-01 09:15 | 13.81423 | 100.79352 | 1998 ft | 139 kts | 193° |
| 2026-05-01 09:16 | 13.80476 | 100.79116 | 1837 ft | 142 kts | 194° |
| 2026-05-01 09:16 | 13.79513 | 100.78883 | 1683 ft | 143 kts | 192° |
| 2026-05-01 09:16 | 13.78552 | 100.78632 | 1561 ft | 142 kts | 196° |
| 2026-05-01 09:17 | 13.76675 | 100.78080 | 1288 ft | 144 kts | 194° |
| 2026-05-01 09:17 | 13.76414 | 100.78010 | 1249 ft | 143 kts | 194° |
| 2026-05-01 09:18 | 13.74830 | 100.77602 | 1002 ft | 143 kts | 195° |
| 2026-05-01 09:19 | 13.73149 | 100.77151 | 766 ft | 146 kts | 195° |
| 2026-05-01 09:19 | 13.71883 | 100.76817 | 525 ft | 140 kts | 197° |
| 2026-05-01 09:19 | 13.71250 | 100.76654 | 404 ft | 147 kts | 198° |
| 2026-05-01 09:20 | 13.69586 | 100.76212 | 145 ft | 146 kts | 197° |
| 2026-05-01 09:20 | 13.67893 | 100.75768 | 16 ft | 85 kts | 194° |
| 2026-05-01 09:21 | 13.67232 | 100.75571 | 18 ft | 30 kts | 215° |
| 2026-05-01 09:21 | 13.67126 | 100.75481 | 18 ft | 22 kts | 223° |
| 2026-05-01 09:21 | 13.67134 | 100.75384 | 18 ft | 6 kts | 351° |
| 2026-05-01 09:22 | 13.67265 | 100.75412 | 18 ft | 20 kts | 14° |
| 2026-05-01 09:22 | 13.67546 | 100.75486 | 18 ft | 21 kts | 14° |
| 2026-05-01 09:23 | 13.67687 | 100.75523 | 18 ft | 21 kts | 14° |
| 2026-05-01 09:23 | 13.67969 | 100.75597 | 18 ft | 21 kts | 14° |
| 2026-05-01 09:24 | 13.68250 | 100.75671 | 18 ft | 21 kts | 14° |
| 2026-05-01 09:24 | 13.68376 | 100.75705 | 18 ft | 13 kts | 15° |
| 2026-05-01 09:24 | 13.68474 | 100.75581 | 20 ft | 12 kts | 285° |
| 2026-05-01 09:25 | 13.68506 | 100.75461 | 18 ft | 3 kts | 291° |
| 2026-05-01 09:25 | 13.68581 | 100.75457 | 18 ft | 11 kts | 13° |
| 2026-05-01 09:26 | 13.68655 | 100.75477 | 18 ft | 9 kts | 14° |
| 2026-05-01 09:26 | 13.68703 | 100.75405 | 18 ft | 5 kts | 284° |
| 2026-05-01 09:26 | 13.68705 | 100.75397 | 18 ft | 0 kts | 284° |